createdAt,value
2019-04-28T00:00:57.615Z,92.50
2019-04-28T00:03:28.175Z,92.70
2019-04-28T00:05:58.758Z,92.40
2019-04-28T00:08:29.466Z,92.30
2019-04-28T00:11:01.806Z,92.20
2019-04-28T00:13:32.491Z,92.00
2019-04-28T00:16:03.089Z,92.00
2019-04-28T00:18:33.552Z,91.70
2019-04-28T00:21:21.743Z,91.90
2019-04-28T00:23:53.783Z,91.40
2019-04-28T00:26:43.738Z,91.50
2019-04-28T00:29:14.300Z,91.50
2019-04-28T00:31:44.809Z,91.50
2019-04-28T00:34:15.197Z,91.40
2019-04-28T00:36:47.339Z,91.40
2019-04-28T00:39:17.797Z,91.30
2019-04-28T00:41:48.300Z,91.30
2019-04-28T00:44:21.732Z,91.10
2019-04-28T00:46:52.288Z,90.90
2019-04-28T00:49:41.956Z,90.90
2019-04-28T00:52:12.514Z,90.80
2019-04-28T00:54:43.246Z,90.80
2019-04-28T00:57:13.761Z,90.90
2019-04-28T00:59:53.993Z,90.90
2019-04-28T01:02:18.053Z,90.90
2019-04-28T01:04:48.435Z,90.90
2019-04-28T01:07:18.935Z,90.80
2019-04-28T01:09:51.411Z,90.80
2019-04-28T01:12:21.569Z,90.80
2019-04-28T01:14:52.898Z,90.90
2019-04-28T01:17:25.756Z,91.00
2019-04-28T01:19:59.708Z,90.90
2019-04-28T01:22:30.151Z,91.00
2019-04-28T01:25:00.595Z,91.00
2019-04-28T01:27:32.735Z,91.10
2019-04-28T01:30:08.446Z,91.00
2019-04-28T01:32:41.532Z,91.10
2019-04-28T01:35:12.277Z,91.10
2019-04-28T01:37:42.670Z,91.20
2019-04-28T01:40:13.163Z,91.30
2019-04-28T01:42:43.556Z,91.50
2019-04-28T01:45:14.225Z,91.40
2019-04-28T01:47:44.651Z,91.40
2019-04-28T01:50:15.149Z,91.50
2019-04-28T01:52:45.542Z,91.60
2019-04-28T01:55:15.972Z,91.50
2019-04-28T01:57:46.360Z,91.50
2019-04-28T02:00:25.194Z,91.50
2019-04-28T02:02:51.365Z,91.40
2019-04-28T02:05:22.764Z,91.50
2019-04-28T02:07:53.229Z,91.60
2019-04-28T02:10:23.727Z,91.50
2019-04-28T02:12:54.128Z,91.70
2019-04-28T02:15:24.559Z,91.60
2019-04-28T02:17:54.955Z,91.80
2019-04-28T02:20:25.385Z,91.80
2019-04-28T02:22:57.431Z,91.90
2019-04-28T02:25:29.511Z,91.80
2019-04-28T02:28:00.008Z,91.80
2019-04-28T02:30:42.175Z,91.90
2019-04-28T02:33:02.526Z,92.10
2019-04-28T02:35:34.202Z,92.20
2019-04-28T02:38:05.007Z,92.20
2019-04-28T02:40:35.442Z,92.30
2019-04-28T02:43:05.957Z,92.20
2019-04-28T02:45:37.094Z,92.50
2019-04-28T02:48:11.092Z,92.40
2019-04-28T02:50:54.882Z,92.20
2019-04-28T02:53:26.908Z,92.20
2019-04-28T02:55:57.343Z,92.10
2019-04-28T02:58:28.020Z,92.00
2019-04-28T03:01:11.179Z,92.00
2019-04-28T03:03:31.322Z,91.90
2019-04-28T03:06:01.896Z,92.00
2019-04-28T03:08:32.478Z,92.00
2019-04-28T03:11:02.970Z,92.00
2019-04-28T03:13:33.409Z,91.90
2019-04-28T03:16:03.932Z,91.80
2019-04-28T03:18:34.440Z,91.80
2019-04-28T03:21:04.977Z,91.90
2019-04-28T03:23:35.607Z,91.90
2019-04-28T03:26:07.644Z,91.80
2019-04-28T03:28:45.134Z,91.70
2019-04-28T03:32:01.638Z,92.00
2019-04-28T03:34:05.012Z,91.70
2019-04-28T03:36:35.565Z,91.60
2019-04-28T03:39:10.858Z,91.70
2019-04-28T03:41:40.660Z,91.80
2019-04-28T03:44:11.568Z,91.60
2019-04-28T03:46:52.780Z,91.60
2019-04-28T03:49:34.266Z,91.60
2019-04-28T03:52:10.536Z,91.50
2019-04-28T03:54:40.967Z,91.50
2019-04-28T03:57:11.793Z,91.70
2019-04-28T03:59:43.799Z,91.80
2019-04-28T04:02:14.387Z,91.80
2019-04-28T04:04:44.816Z,92.00
2019-04-28T04:07:15.210Z,91.90
2019-04-28T04:09:47.374Z,92.00
2019-04-28T04:12:25.213Z,92.20
2019-04-28T04:15:00.796Z,92.10
2019-04-28T04:17:37.547Z,92.20
2019-04-28T04:20:11.002Z,92.10
2019-04-28T04:22:41.253Z,91.90
2019-04-28T04:25:12.669Z,92.00
2019-04-28T04:27:43.289Z,92.10
2019-04-28T04:30:13.849Z,92.20
2019-04-28T04:32:44.244Z,91.80
2019-04-28T04:35:14.674Z,91.70
2019-04-28T04:37:45.068Z,91.50
2019-04-28T04:40:15.576Z,91.70
2019-04-28T04:42:45.979Z,91.50
2019-04-28T04:45:16.408Z,91.50
2019-04-28T04:47:46.811Z,91.30
2019-04-28T04:50:17.302Z,91.00
2019-04-28T04:52:50.042Z,91.00
2019-04-28T04:55:21.210Z,90.90
2019-04-28T04:57:51.686Z,91.00
2019-04-28T05:00:35.835Z,91.20
2019-04-28T05:03:07.866Z,91.10
2019-04-28T05:05:40.463Z,91.20
2019-04-28T05:08:15.473Z,91.10
2019-04-28T05:10:44.046Z,91.00
2019-04-28T05:13:14.431Z,90.90
2019-04-28T05:15:44.865Z,91.10
2019-04-28T05:18:15.259Z,91.00
2019-04-28T05:20:45.687Z,91.10
2019-04-28T05:23:23.386Z,91.40
2019-04-28T05:25:53.826Z,90.90
2019-04-28T05:28:24.266Z,90.70
2019-04-28T05:30:54.773Z,90.60
2019-04-28T05:33:33.290Z,90.40
2019-04-28T05:36:02.943Z,90.40
2019-04-28T05:38:32.170Z,90.40
2019-04-28T05:41:02.915Z,90.30
2019-04-28T05:43:33.675Z,90.20
2019-04-28T05:46:04.068Z,90.10
2019-04-28T05:48:36.147Z,90.00
2019-04-28T05:51:09.407Z,89.80
2019-04-28T05:53:44.254Z,89.00
2019-04-28T05:56:16.274Z,88.30
2019-04-28T05:58:54.172Z,88.50
2019-04-28T06:01:43.609Z,87.60
2019-04-28T06:04:14.113Z,87.50
2019-04-28T06:06:46.288Z,87.60
2019-04-28T06:09:20.271Z,87.70
2019-04-28T06:11:50.455Z,86.60
2019-04-28T06:14:20.886Z,86.40
2019-04-28T06:16:51.282Z,86.60
2019-04-28T06:19:21.721Z,86.40
2019-04-28T06:21:52.112Z,85.90
2019-04-28T06:24:22.545Z,85.60
2019-04-28T06:26:52.950Z,84.40
2019-04-28T06:29:23.381Z,84.00
2019-04-28T06:31:53.777Z,83.70
2019-04-28T06:34:24.208Z,83.50
2019-04-28T06:36:54.600Z,82.50
2019-04-28T06:39:25.038Z,82.50
2019-04-28T06:41:55.427Z,81.10
2019-04-28T06:44:26.122Z,80.20
2019-04-28T06:46:56.519Z,80.40
2019-04-28T06:49:27.066Z,79.30
2019-04-28T06:51:57.484Z,80.10
2019-04-28T06:54:28.024Z,80.00
2019-04-28T06:56:58.683Z,78.70
2019-04-28T06:59:29.115Z,78.60
2019-04-28T07:01:59.673Z,78.20
2019-04-28T07:04:30.104Z,78.20
2019-04-28T07:07:00.500Z,78.20
2019-04-28T07:09:30.934Z,77.20
2019-04-28T07:12:01.562Z,77.00
2019-04-28T07:14:32.965Z,77.90
2019-04-28T07:17:03.358Z,78.20
2019-04-28T07:19:33.795Z,78.10
2019-04-28T07:22:05.833Z,77.20
2019-04-28T07:24:36.262Z,76.60
2019-04-28T07:27:07.819Z,76.80
2019-04-28T07:29:38.263Z,76.40
2019-04-28T07:32:08.724Z,76.20
2019-04-28T07:34:39.159Z,76.30
2019-04-28T07:37:09.628Z,76.00
2019-04-28T07:39:40.058Z,75.30
2019-04-28T07:42:10.450Z,74.70
2019-04-28T07:44:40.891Z,74.20
2019-04-28T07:47:11.279Z,75.30
2019-04-28T07:49:41.714Z,74.30
2019-04-28T07:52:22.479Z,74.00
2019-04-28T07:54:52.932Z,74.20
2019-04-28T07:57:24.168Z,72.90
2019-04-28T07:59:54.705Z,72.00
2019-04-28T08:02:25.469Z,73.40
2019-04-28T08:04:55.912Z,72.90
2019-04-28T08:07:26.374Z,72.60
2019-04-28T08:09:56.812Z,72.70
2019-04-28T08:12:27.204Z,72.40
2019-04-28T08:14:57.787Z,71.60
2019-04-28T08:17:28.179Z,72.60
2019-04-28T08:19:58.617Z,71.70
2019-04-28T08:22:29.978Z,72.40
2019-04-28T08:25:00.760Z,72.80
2019-04-28T08:27:31.145Z,72.30
2019-04-28T08:30:01.937Z,71.60
2019-04-28T08:32:50.336Z,71.00
2019-04-28T08:35:20.785Z,72.20
2019-04-28T08:37:51.184Z,73.30
2019-04-28T08:40:22.130Z,73.80
2019-04-28T08:42:52.594Z,74.20
2019-04-28T08:45:23.179Z,74.30
2019-04-28T08:47:53.743Z,73.90
2019-04-28T08:50:24.175Z,74.80
2019-04-28T08:52:54.571Z,75.00
2019-04-28T08:55:25.008Z,75.50
2019-04-28T08:57:55.400Z,75.00
2019-04-28T09:00:25.840Z,74.30
2019-04-28T09:02:56.246Z,74.00
2019-04-28T09:05:26.862Z,74.60
2019-04-28T09:07:58.574Z,74.50
2019-04-28T09:10:29.076Z,75.60
2019-04-28T09:12:59.507Z,74.50
2019-04-28T09:15:29.941Z,74.40
2019-04-28T09:18:00.715Z,74.30
2019-04-28T09:20:31.106Z,73.70
2019-04-28T09:23:01.612Z,74.20
2019-04-28T09:25:32.077Z,73.60
2019-04-28T09:28:02.515Z,73.10
2019-04-28T09:30:32.908Z,73.80
2019-04-28T09:33:03.530Z,74.30
2019-04-28T09:35:34.009Z,73.80
2019-04-28T09:38:04.450Z,73.80
2019-04-28T09:40:34.852Z,73.20
2019-04-28T09:43:17.209Z,72.80
2019-04-28T09:45:52.530Z,71.80
2019-04-28T09:48:23.019Z,71.50
2019-04-28T09:50:53.492Z,71.90
2019-04-28T09:53:23.918Z,68.90
2019-04-28T09:55:54.312Z,69.00
2019-04-28T09:58:24.810Z,67.10
2019-04-28T10:00:55.280Z,65.80
2019-04-28T10:03:25.718Z,65.70
2019-04-28T10:05:56.184Z,65.40
2019-04-28T10:08:26.877Z,66.90
2019-04-28T10:10:57.403Z,64.30
2019-04-28T10:13:27.890Z,63.30
2019-04-28T10:15:58.350Z,65.20
2019-04-28T10:18:29.163Z,66.00
2019-04-28T10:20:59.561Z,66.60
2019-04-28T10:23:29.988Z,65.90
2019-04-28T10:26:00.379Z,66.10
2019-04-28T10:28:31.135Z,66.90
2019-04-28T10:31:01.604Z,67.50
2019-04-28T10:33:32.032Z,68.80
2019-04-28T10:36:02.575Z,70.20
2019-04-28T10:38:33.144Z,71.10
2019-04-28T10:41:05.181Z,71.90
2019-04-28T10:43:35.617Z,72.80
2019-04-28T10:46:06.226Z,73.20
2019-04-28T10:48:36.683Z,73.60
2019-04-28T10:51:07.139Z,73.40
2019-04-28T10:53:37.573Z,74.50
2019-04-28T10:56:07.973Z,73.90
2019-04-28T10:58:38.888Z,72.50
2019-04-28T11:01:09.338Z,72.60
2019-04-28T11:03:40.143Z,77.40
2019-04-28T11:06:12.622Z,77.70
2019-04-28T11:08:45.029Z,79.60
2019-04-28T11:11:17.419Z,81.40
2019-04-28T11:13:48.098Z,81.40
2019-04-28T11:16:20.197Z,84.00
2019-04-28T11:18:50.670Z,85.10
2019-04-28T11:21:21.837Z,85.90
2019-04-28T11:23:52.403Z,87.40
2019-04-28T11:26:23.024Z,86.00
2019-04-28T11:28:54.772Z,86.20
2019-04-28T11:31:25.441Z,86.80
2019-04-28T11:33:59.929Z,86.90
2019-04-28T11:36:29.999Z,86.50
2019-04-28T11:39:02.002Z,85.40
2019-04-28T11:41:34.139Z,84.20
2019-04-28T11:44:04.910Z,85.50
2019-04-28T11:46:35.412Z,84.70
2019-04-28T11:49:09.230Z,86.00
2019-04-28T11:51:39.949Z,85.40
2019-04-28T11:54:10.511Z,87.10
2019-04-28T11:56:41.941Z,87.50
2019-04-28T11:59:12.608Z,90.30
2019-04-28T12:01:43.301Z,90.60
2019-04-28T12:04:15.440Z,90.50
2019-04-28T12:06:46.024Z,90.70
2019-04-28T12:09:33.282Z,91.20
2019-04-28T12:12:05.461Z,91.30
2019-04-28T12:14:40.292Z,91.80
2019-04-28T12:17:14.397Z,91.80
2019-04-28T12:19:46.130Z,92.40
2019-04-28T12:22:16.887Z,93.00
2019-04-28T12:24:47.384Z,93.20
2019-04-28T12:27:17.884Z,93.60
2019-04-28T12:29:48.265Z,94.20
2019-04-28T12:32:19.123Z,94.10
2019-04-28T12:34:49.650Z,93.20
2019-04-28T12:37:20.083Z,93.50
2019-04-28T12:39:50.484Z,93.80
2019-04-28T12:42:20.918Z,93.90
2019-04-28T12:44:51.419Z,93.70
2019-04-28T12:47:21.920Z,94.00
2019-04-28T12:49:56.915Z,94.20
2019-04-28T12:52:27.747Z,94.90
2019-04-28T12:54:58.153Z,95.00
2019-04-28T12:57:29.555Z,94.30
2019-04-28T13:00:02.416Z,94.70
2019-04-28T13:02:52.118Z,94.80
2019-04-28T13:05:22.977Z,94.40
2019-04-28T13:07:53.706Z,95.60
2019-04-28T13:10:24.168Z,95.20
2019-04-28T13:12:54.672Z,95.30
2019-04-28T13:15:25.113Z,94.50
2019-04-28T13:17:55.666Z,95.50
2019-04-28T13:20:26.067Z,96.10
2019-04-28T13:22:59.834Z,95.50
2019-04-28T13:25:30.551Z,95.70
2019-04-28T13:28:00.989Z,96.00
2019-04-28T13:30:31.558Z,96.50
2019-04-28T13:33:02.004Z,96.90
2019-04-28T13:35:32.942Z,96.40
2019-04-28T13:38:03.698Z,96.20
2019-04-28T13:40:38.705Z,96.10
2019-04-28T13:43:09.229Z,96.00
2019-04-28T13:45:39.734Z,96.70
2019-04-28T13:48:11.298Z,96.80
2019-04-28T13:50:41.777Z,97.30
2019-04-28T13:53:12.336Z,97.80
2019-04-28T13:55:46.840Z,97.40
2019-04-28T13:58:31.140Z,97.70
2019-04-28T14:01:09.125Z,97.70
2019-04-28T14:03:44.033Z,98.00
2019-04-28T14:06:27.714Z,97.80
2019-04-28T14:08:48.309Z,97.60
2019-04-28T14:11:18.775Z,97.50
2019-04-28T14:13:49.302Z,97.70
2019-04-28T14:16:19.821Z,98.00
2019-04-28T14:18:50.265Z,98.30
2019-04-28T14:21:20.755Z,98.50
2019-04-28T14:23:51.355Z,98.30
2019-04-28T14:26:21.795Z,98.30
2019-04-28T14:28:52.223Z,98.40
2019-04-28T14:31:22.726Z,98.40
2019-04-28T14:33:53.128Z,98.40
2019-04-28T14:36:24.531Z,98.30
2019-04-28T14:38:54.931Z,98.40
2019-04-28T14:41:25.443Z,98.50
2019-04-28T14:43:57.453Z,98.20
2019-04-28T14:46:28.934Z,98.50
2019-04-28T14:48:59.427Z,98.50
2019-04-28T14:51:30.085Z,98.00
2019-04-28T14:54:00.792Z,98.00
2019-04-28T14:56:31.225Z,98.50
2019-04-28T14:59:04.101Z,98.50
2019-04-28T15:01:38.290Z,98.40
2019-04-28T15:04:13.097Z,98.20
2019-04-28T15:06:55.513Z,97.70
2019-04-28T15:09:23.887Z,96.50
2019-04-28T15:11:56.024Z,96.60
2019-04-28T15:14:26.428Z,96.10
2019-04-28T15:16:57.124Z,96.40
2019-04-28T15:19:27.638Z,96.40
2019-04-28T15:21:58.935Z,97.00
2019-04-28T15:24:29.337Z,97.00
2019-04-28T15:27:00.002Z,96.40
2019-04-28T15:29:30.820Z,96.30
2019-04-28T15:32:01.321Z,96.30
2019-04-28T15:34:31.761Z,96.20
2019-04-28T15:37:09.662Z,96.00
2019-04-28T15:39:34.285Z,96.60
2019-04-28T15:42:04.757Z,96.60
2019-04-28T15:44:35.183Z,95.90
2019-04-28T15:47:05.720Z,96.50
2019-04-28T15:49:36.164Z,96.80
2019-04-28T15:52:06.563Z,97.20
2019-04-28T15:54:36.997Z,96.60
2019-04-28T15:57:07.384Z,96.90
2019-04-28T15:59:37.828Z,97.10
2019-04-28T16:02:08.466Z,97.40
2019-04-28T16:04:38.908Z,97.40
2019-04-28T16:07:09.299Z,97.50
2019-04-28T16:09:41.173Z,97.50
2019-04-28T16:12:11.613Z,97.90
2019-04-28T16:14:42.061Z,98.20
2019-04-28T16:17:12.524Z,98.30
2019-04-28T16:19:42.981Z,98.60
2019-04-28T16:22:13.436Z,98.80
2019-04-28T16:24:44.349Z,98.80
2019-04-28T16:27:15.610Z,99.00
2019-04-28T16:29:46.051Z,99.00
2019-04-28T16:32:16.480Z,99.10
2019-04-28T16:34:47.248Z,99.40
2019-04-28T16:37:17.747Z,99.70
2019-04-28T16:39:48.188Z,99.60
2019-04-28T16:42:20.400Z,99.40
2019-04-28T16:44:56.930Z,99.50
2019-04-28T16:47:27.333Z,99.20
2019-04-28T16:49:57.858Z,99.00
2019-04-28T16:52:28.541Z,98.70
2019-04-28T16:55:15.786Z,99.20
2019-04-28T16:57:53.385Z,98.80
2019-04-28T17:00:31.446Z,99.10
2019-04-28T17:03:01.902Z,99.00
2019-04-28T17:05:32.359Z,99.10
2019-04-28T17:08:02.928Z,99.30
2019-04-28T17:10:33.573Z,99.30
2019-04-28T17:13:03.968Z,99.60
2019-04-28T17:15:34.428Z,99.80
2019-04-28T17:18:04.883Z,99.40
2019-04-28T17:20:35.462Z,99.20
2019-04-28T17:23:05.926Z,99.30
2019-04-28T17:25:36.736Z,99.30
2019-04-28T17:28:07.290Z,99.20
2019-04-28T17:30:37.727Z,99.30
2019-04-28T17:33:08.283Z,99.50
2019-04-28T17:35:38.912Z,99.60
2019-04-28T17:38:09.377Z,99.30
2019-04-28T17:40:39.959Z,99.50
2019-04-28T17:43:11.696Z,98.90
2019-04-28T17:45:42.281Z,98.50
2019-04-28T17:48:20.415Z,98.60
2019-04-28T17:50:50.996Z,98.50
2019-04-28T17:53:21.382Z,97.90
2019-04-28T17:55:51.824Z,98.30
2019-04-28T17:58:22.221Z,98.30
2019-04-28T18:00:57.165Z,98.30
2019-04-28T18:03:47.390Z,98.60
2019-04-28T18:06:22.021Z,98.60
2019-04-28T18:08:53.695Z,98.60
2019-04-28T18:11:24.132Z,98.20
2019-04-28T18:13:54.726Z,98.20
2019-04-28T18:16:26.870Z,98.00
2019-04-28T18:19:15.195Z,97.20
2019-04-28T18:21:46.783Z,97.30
2019-04-28T18:24:17.282Z,97.30
2019-04-28T18:26:47.861Z,97.60
2019-04-28T18:29:18.326Z,97.00
2019-04-28T18:32:06.916Z,97.20
2019-04-28T18:34:39.142Z,96.50
2019-04-28T18:37:38.945Z,96.80
2019-04-28T18:40:25.945Z,96.80
2019-04-28T18:42:58.152Z,96.70
2019-04-28T18:45:28.661Z,96.70
2019-04-28T18:47:59.838Z,96.70
2019-04-28T18:50:30.575Z,96.60
2019-04-28T18:53:01.058Z,97.20
2019-04-28T18:55:32.134Z,96.80
2019-04-28T18:58:02.528Z,97.00
2019-04-28T19:00:34.675Z,97.00
2019-04-28T19:03:05.141Z,97.00
2019-04-28T19:05:41.231Z,96.70
2019-04-28T19:08:16.984Z,96.60
2019-04-28T19:10:51.610Z,96.50
2019-04-28T19:13:29.265Z,97.00
2019-04-28T19:16:07.018Z,96.20
2019-04-28T19:18:48.150Z,96.20
2019-04-28T19:21:18.625Z,96.40
2019-04-28T19:23:49.023Z,95.90
2019-04-28T19:26:19.604Z,96.30
2019-04-28T19:28:50.075Z,96.10
2019-04-28T19:31:20.621Z,96.10
2019-04-28T19:33:51.227Z,96.20
2019-04-28T19:36:21.739Z,96.50
2019-04-28T19:39:02.961Z,96.80
2019-04-28T19:41:24.759Z,96.80
2019-04-28T19:43:55.328Z,96.80
2019-04-28T19:46:25.870Z,96.90
2019-04-28T19:48:56.262Z,96.90
2019-04-28T19:51:31.895Z,96.50
2019-04-28T19:53:59.587Z,96.40
2019-04-28T19:56:37.742Z,96.80
2019-04-28T19:59:09.791Z,96.30
2019-04-28T20:01:40.314Z,96.60
2019-04-28T20:04:11.167Z,96.20
2019-04-28T20:06:42.573Z,96.40
2019-04-28T20:09:12.960Z,96.00
2019-04-28T20:11:43.670Z,96.00
2019-04-28T20:14:14.142Z,96.10
2019-04-28T20:16:44.704Z,96.00
2019-04-28T20:19:15.235Z,96.10
2019-04-28T20:21:45.803Z,96.20
2019-04-28T20:24:16.210Z,95.90
2019-04-28T20:26:46.770Z,95.90
2019-04-28T20:29:17.306Z,95.80
2019-04-28T20:31:47.816Z,96.00
2019-04-28T20:34:18.279Z,95.90
2019-04-28T20:36:50.361Z,96.00
2019-04-28T20:39:22.512Z,96.10
2019-04-28T20:41:53.014Z,96.20
2019-04-28T20:44:23.452Z,96.30
2019-04-28T20:46:53.940Z,96.20
2019-04-28T20:49:24.392Z,96.00
2019-04-28T20:51:54.815Z,96.20
2019-04-28T20:54:25.266Z,96.40
2019-04-28T20:56:55.735Z,96.60
2019-04-28T20:59:26.173Z,96.20
2019-04-28T21:01:56.662Z,96.40
2019-04-28T21:04:27.214Z,96.40
2019-04-28T21:06:57.622Z,96.20
2019-04-28T21:09:28.079Z,96.10
2019-04-28T21:11:58.638Z,96.40
2019-04-28T21:14:29.117Z,96.50
2019-04-28T21:17:00.937Z,96.50
2019-04-28T21:19:31.612Z,96.20
2019-04-28T21:22:02.016Z,96.70
2019-04-28T21:24:33.539Z,96.60
2019-04-28T21:27:04.123Z,96.70
2019-04-28T21:29:34.563Z,96.40
2019-04-28T21:32:05.110Z,96.60
2019-04-28T21:34:35.594Z,96.60
2019-04-28T21:37:05.992Z,96.60
2019-04-28T21:39:36.447Z,96.80
2019-04-28T21:42:08.480Z,96.50
2019-04-28T21:44:43.505Z,96.90
2019-04-28T21:47:24.294Z,97.00
2019-04-28T21:49:54.730Z,97.00
2019-04-28T21:52:25.122Z,96.90
2019-04-28T21:54:55.630Z,96.70
2019-04-28T21:57:26.144Z,97.10
2019-04-28T21:59:57.543Z,97.20
2019-04-28T22:02:29.562Z,97.00
2019-04-28T22:05:00.090Z,96.90
2019-04-28T22:07:31.748Z,97.00
2019-04-28T22:10:02.257Z,97.00
2019-04-28T22:12:33.125Z,97.10
2019-04-28T22:15:04.348Z,97.30
2019-04-28T22:17:34.910Z,97.30
2019-04-28T22:20:07.781Z,97.70
2019-04-28T22:22:38.247Z,97.60
2019-04-28T22:25:10.391Z,97.50
2019-04-28T22:27:41.919Z,97.60
2019-04-28T22:30:13.003Z,97.60
2019-04-28T22:32:43.468Z,97.40
2019-04-28T22:35:14.711Z,97.80
2019-04-28T22:37:45.112Z,98.00
2019-04-28T22:40:15.688Z,98.20
2019-04-28T22:42:46.488Z,98.00
2019-04-28T22:45:17.364Z,98.10
2019-04-28T22:47:47.793Z,98.40
2019-04-28T22:50:41.445Z,98.70
2019-04-28T22:53:12.351Z,98.60
2019-04-28T22:55:44.382Z,98.60
2019-04-28T22:58:16.458Z,98.60
2019-04-28T23:00:51.559Z,98.60
2019-04-28T23:03:38.458Z,98.70
2019-04-28T23:06:10.570Z,98.80
2019-04-28T23:08:41.173Z,99.00
2019-04-28T23:11:11.613Z,99.10
2019-04-28T23:13:42.120Z,99.10
2019-04-28T23:16:12.528Z,99.10
2019-04-28T23:18:43.100Z,99.20
2019-04-28T23:21:15.138Z,99.20
2019-04-28T23:23:45.581Z,99.30
2019-04-28T23:26:15.980Z,99.30
2019-04-28T23:28:46.420Z,99.30
2019-04-28T23:31:16.815Z,99.40
2019-04-28T23:33:47.340Z,99.30
2019-04-28T23:36:17.736Z,99.30
2019-04-28T23:38:48.172Z,99.40
2019-04-28T23:41:32.325Z,99.50
2019-04-28T23:44:02.772Z,99.40
2019-04-28T23:46:50.767Z,99.30
2019-04-28T23:49:21.277Z,99.40
2019-04-28T23:52:02.462Z,99.30
2019-04-28T23:54:34.548Z,99.40
2019-04-28T23:57:07.305Z,99.50
2019-04-28T23:59:37.221Z,99.50
